Time;durP1;ratioP1;P1;durP2;ratioP2;P2;SDS_P1;SDS_P2;PMS_P1;PMS_P2;Temp;Humidity;BMP_temperature;BMP_pressure;BME280_temperature;BME280_humidity;BME280_pressure;Samples;Min_cycle;Max_cycle;Signal;HPM_P1;HPM_P2
2021/12/13 07:53:56;;;;;;;24.40;17.20;;;;;;;8.18;100.00;102554.88;5268879;27;20804;-73
2021/12/13 07:56:27;;;;;;;25.77;17.55;;;;;;;8.14;100.00;102558.44;5256421;28;20111;-72
2021/12/13 07:59:16;;;;;;;25.80;17.87;;;;;;;8.19;100.00;102559.19;5268480;28;20112;-78
2021/12/13 08:02:14;;;;;;;21.63;17.47;;;;;;;8.26;100.00;102569.50;5265908;28;20034;-76
2021/12/13 08:04:58;;;;;;;21.37;16.23;;;;;;;8.25;100.00;102559.97;5262924;28;20041;-75
2021/12/13 08:07:55;;;;;;;24.05;16.58;;;;;;;8.41;100.00;102561.31;5266032;28;20490;-73
2021/12/13 08:10:37;;;;;;;26.00;16.97;;;;;;;8.47;100.00;102553.34;5265154;28;20033;-73
2021/12/13 08:13:13;;;;;;;24.37;16.33;;;;;;;8.49;100.00;102550.72;5266115;28;20489;-75
2021/12/13 08:15:59;;;;;;;23.40;17.47;;;;;;;8.57;100.00;102550.56;5261756;28;20086;-73
2021/12/13 08:18:37;;;;;;;24.33;17.50;;;;;;;8.64;100.00;102559.13;5258892;28;20114;-74
2021/12/13 08:21:21;;;;;;;21.40;16.20;;;;;;;8.68;100.00;102566.84;5267654;28;20232;-72
2021/12/13 08:23:57;;;;;;;21.00;16.85;;;;;;;8.69;100.00;102565.09;5259847;28;20045;-73
2021/12/13 08:26:33;;;;;;;22.77;17.40;;;;;;;8.67;100.00;102562.50;5264211;28;20509;-73
2021/12/13 08:29:27;;;;;;;21.47;16.87;;;;;;;8.65;100.00;102559.06;5266517;28;20111;-73
2021/12/13 08:32:09;;;;;;;21.05;16.05;;;;;;;8.79;100.00;102558.75;5267595;28;20056;-73
2021/12/13 08:34:48;;;;;;;21.73;17.10;;;;;;;8.70;100.00;102554.59;5264165;28;20028;-73
2021/12/13 08:37:28;;;;;;;21.60;15.90;;;;;;;8.78;100.00;102551.78;5299494;28;20024;-73
2021/12/13 08:40:22;;;;;;;20.67;16.53;;;;;;;8.85;100.00;102556.88;5267021;28;20036;-73
2021/12/13 08:42:55;;;;;;;19.47;15.60;;;;;;;8.75;100.00;102567.53;5267185;28;20029;-73
2021/12/13 08:45:35;;;;;;;21.23;15.83;;;;;;;8.81;100.00;102551.69;5262990;28;20098;-73
2021/12/13 08:48:13;;;;;;;15.77;13.13;;;;;;;8.80;100.00;102562.19;5266893;28;20044;-73
2021/12/13 08:50:49;;;;;;;18.80;14.53;;;;;;;-150.27;100.00;61272.81;5265994;28;20108;-73
2021/12/13 08:53:35;;;;;;;16.90;13.47;;;;;;;-150.27;100.00;61272.81;5265155;28;20051;-73
2021/12/13 08:56:20;;;;;;;16.27;13.43;;;;;;;-150.27;100.00;61272.81;5261163;28;20596;-73
2021/12/13 08:59:01;;;;;;;19.73;16.30;;;;;;;-150.27;100.00;61272.81;5297387;28;20060;-73
2021/12/13 09:02:07;;;;;;;17.07;13.33;;;;;;;-150.27;100.00;61272.81;5265007;28;20091;-73
2021/12/13 09:04:53;;;;;;;18.63;13.90;;;;;;;-150.27;100.00;61272.81;5238340;28;20599;-73
2021/12/13 09:07:25;;;;;;;18.00;13.30;;;;;;;-150.27;100.00;61272.81;5251491;28;20029;-73
2021/12/13 09:09:57;;;;;;;19.33;13.17;;;;;;;-150.27;100.00;61272.81;5251580;28;20017;-73
2021/12/13 09:12:34;;;;;;;23.37;13.87;;;;;;;-150.27;100.00;61272.81;5282787;28;20090;-73
2021/12/13 09:15:22;;;;;;;17.67;13.37;;;;;;;8.80;100.00;102562.19;5247929;28;20686;-73
2021/12/13 09:17:53;;;;;;;17.73;13.93;;;;;;;-150.27;nan;61272.81;5252021;28;20119;-74
2021/12/13 09:20:32;;;;;;;17.20;13.00;;;;;;;-150.27;100.00;61272.81;5251259;28;20119;-73
2021/12/13 09:23:13;;;;;;;16.27;12.50;;;;;;;-150.27;100.00;114752.50;5251605;28;20147;-72
2021/12/13 09:25:46;;;;;;;17.43;12.87;;;;;;;-150.27;100.00;61272.81;5248001;28;20083;-72
2021/12/13 09:28:29;;;;;;;16.00;11.67;;;;;;;-150.27;100.00;61272.81;5250671;28;20033;-73
2021/12/13 09:31:07;;;;;;;17.07;13.90;;;;;;;-150.27;100.00;61272.81;5251102;28;20108;-70
2021/12/13 09:33:55;;;;;;;18.87;12.43;;;;;;;-150.27;100.00;61272.81;5283256;28;20283;-72
2021/12/13 09:36:36;;;;;;;14.20;12.67;;;;;;;-150.27;100.00;61272.81;5248404;28;20025;-72
2021/12/13 09:39:21;;;;;;;17.87;11.23;;;;;;;-150.27;100.00;61272.81;5250061;28;20228;-70
2021/12/13 09:41:59;;;;;;;16.27;12.52;;;;;;;-150.27;100.00;61272.81;5251150;28;20079;-72
2021/12/13 09:44:40;;;;;;;14.03;10.77;;;;;;;-150.27;100.00;61272.81;5247375;28;20032;-72
2021/12/13 09:47:17;;;;;;;16.50;11.97;;;;;;;-150.27;100.00;61272.81;5250267;28;20060;-73
2021/12/13 09:49:55;;;;;;;17.30;11.23;;;;;;;-150.27;100.00;61272.81;5250760;28;20021;-73
2021/12/13 09:52:37;;;;;;;16.27;10.10;;;;;;;-150.27;100.00;61272.81;5250236;28;20040;-72
2021/12/13 09:55:20;;;;;;;13.90;10.23;;;;;;;-150.27;100.00;61272.81;5247434;28;20387;-72
2021/12/13 09:58:09;;;;;;;14.50;10.93;;;;;;;-150.27;100.00;61272.81;5281801;28;20025;-74
2021/12/13 10:00:58;;;;;;;11.87;10.60;;;;;;;-150.27;100.00;61272.81;5282846;28;20056;-72
2021/12/13 10:03:49;;;;;;;12.97;10.57;;;;;;;-150.27;100.00;61272.81;5250807;28;20056;-72
2021/12/13 10:06:32;;;;;;;14.03;10.37;;;;;;;-150.27;100.00;61272.81;5245740;28;20032;-73
2021/12/13 10:09:12;;;;;;;12.43;10.80;;;;;;;-150.27;100.00;61272.81;5250625;28;20055;-73
2021/12/13 10:11:54;;;;;;;17.97;10.57;;;;;;;-150.27;100.00;61272.81;5249369;28;20754;-72
2021/12/13 10:14:30;;;;;;;12.13;10.10;;;;;;;-150.27;100.00;61272.81;5247038;28;20078;-72
2021/12/13 10:17:04;;;;;;;13.40;9.80;;;;;;;-150.27;100.00;78578.53;5249428;28;20045;-72
2021/12/13 10:19:41;;;;;;;10.95;7.82;;;;;;;-150.27;100.00;61272.81;5250586;28;20028;-72
2021/12/13 10:22:16;;;;;;;12.33;8.60;;;;;;;-150.27;100.00;61272.81;5251050;28;20043;-72
2021/12/13 10:24:54;;;;;;;13.03;8.87;;;;;;;-150.27;100.00;61272.81;5244082;28;20028;-73
2021/12/13 10:27:25;;;;;;;12.40;8.60;;;;;;;-150.27;100.00;61272.81;5249798;28;20488;-72
2021/12/13 10:30:00;;;;;;;9.73;8.20;;;;;;;-150.27;100.00;61272.81;5248722;28;20056;-73
2021/12/13 10:32:35;;;;;;;15.45;9.25;;;;;;;-150.27;100.00;61272.81;5258059;28;20028;-73
2021/12/13 10:35:09;;;;;;;14.80;8.97;;;;;;;-150.27;100.00;61272.81;5256020;28;20029;-73
2021/12/13 10:37:48;;;;;;;12.07;8.93;;;;;;;-150.27;100.00;61272.81;5249845;28;20112;-73
2021/12/13 10:40:22;;;;;;;10.90;8.37;;;;;;;-150.27;nan;61272.81;5250251;28;20442;-73
2021/12/13 10:43:00;;;;;;;9.85;7.45;;;;;;;-150.27;100.00;61272.81;5250067;28;20032;-73
2021/12/13 10:45:39;;;;;;;16.90;8.20;;;;;;;-150.27;100.00;61272.81;5247922;28;20033;-73
2021/12/13 10:48:14;;;;;;;7.63;6.80;;;;;;;-150.27;100.00;61272.81;5234015;28;20125;-73
2021/12/13 10:50:50;;;;;;;8.35;6.70;;;;;;;-150.27;100.00;61272.81;5248435;28;20515;-73
2021/12/13 10:53:25;;;;;;;9.47;7.50;;;;;;;-150.27;100.00;61272.81;5247851;28;20049;-73
2021/12/13 10:56:02;;;;;;;8.43;7.30;;;;;;;-150.27;100.00;61272.81;5245423;28;20041;-73
2021/12/13 10:58:37;;;;;;;7.60;6.80;;;;;;;-150.27;100.00;61272.81;5248161;28;20685;-73
2021/12/13 11:01:22;;;;;;;8.17;7.00;;;;;;;-150.27;100.00;61272.81;5244370;28;20064;-73
2021/12/13 11:03:56;;;;;;;8.63;6.20;;;;;;;-150.27;100.00;61272.81;5247953;28;20032;-74
2021/12/13 11:06:28;;;;;;;8.93;5.75;;;;;;;-150.27;100.00;61272.81;5246318;28;20104;-73
2021/12/13 11:08:59;;;;;;;9.03;7.13;;;;;;;-150.27;100.00;61272.81;5249179;28;20108;-72
2021/12/13 11:11:35;;;;;;;7.57;6.20;;;;;;;-150.27;100.00;61272.81;5247827;28;20036;-72
2021/12/13 11:14:10;;;;;;;12.73;7.23;;;;;;;-150.27;100.00;61272.81;5248356;28;20021;-73
2021/12/13 11:16:47;;;;;;;12.77;7.57;;;;;;;-150.27;100.00;61272.81;5247113;28;20048;-73
2021/12/13 11:19:23;;;;;;;12.20;7.73;;;;;;;-150.27;100.00;61272.81;5249393;28;20092;-75
2021/12/13 11:22:01;;;;;;;10.40;6.40;;;;;;;-150.27;100.00;61272.81;5250785;28;20064;-71
2021/12/13 11:24:36;;;;;;;8.73;5.70;;;;;;;-150.27;100.00;61272.81;5246413;28;20090;-70
2021/12/13 11:27:13;;;;;;;;;;;;;;;-150.27;100.00;61272.81;5248842;28;20024;-70
2021/12/13 11:29:46;;;;;;;6.97;5.80;;;;;;;-150.27;100.00;61272.81;5247982;28;19924;-70
2021/12/13 11:32:39;;;;;;;7.27;5.87;;;;;;;-150.27;100.00;61272.81;5249504;28;20032;-70
2021/12/13 11:36:07;;;;;;;12.23;8.33;;;;;;;-150.27;100.00;61272.81;5246576;28;20688;-71
2021/12/13 11:39:00;;;;;;;10.90;6.03;;;;;;;-150.27;100.00;61272.81;5225519;28;20750;-70
2021/12/13 11:41:52;;;;;;;8.03;6.30;;;;;;;-150.27;100.00;61272.81;5225677;28;20021;-70
2021/12/13 11:44:44;;;;;;;7.40;5.23;;;;;;;-150.27;100.00;61272.81;5262300;28;20041;-71
2021/12/13 11:47:40;;;;;;;8.10;5.47;;;;;;;-150.27;100.00;61272.81;5249113;28;20543;-70
2021/12/13 11:50:17;;;;;;;8.20;5.83;;;;;;;-150.27;100.00;61272.81;5236210;28;20025;-70
2021/12/13 11:53:23;;;;;;;13.80;6.50;;;;;;;8.80;100.00;102562.19;5248605;28;20051;-74
2021/12/13 11:56:22;;;;;;;8.77;6.47;;;;;;;8.80;100.00;102562.19;5246682;28;20025;-72
2021/12/13 11:59:15;;;;;;;8.53;5.97;;;;;;;-150.27;100.00;61272.81;5280381;28;20044;-72
2021/12/13 12:02:00;;;;;;;9.47;5.53;;;;;;;-150.27;100.00;78578.53;5247066;28;20044;-71
2021/12/13 12:05:05;;;;;;;12.77;4.83;;;;;;;-150.27;nan;61272.81;5246225;28;21313;-71
2021/12/13 12:08:25;;;;;;;7.32;5.10;;;;;;;8.80;100.00;102562.19;5235960;28;20037;-71
2021/12/13 12:11:02;;;;;;;8.63;5.03;;;;;;;-150.27;100.00;78578.53;5238274;28;20041;-72
2021/12/13 12:13:50;;;;;;;9.40;5.17;;;;;;;-150.27;100.00;78578.53;5247664;28;20029;-71
2021/12/13 12:16:24;;;;;;;7.83;5.73;;;;;;;8.80;100.00;102562.19;5246039;28;20027;-72
2021/12/13 12:18:56;;;;;;;7.95;5.40;;;;;;;8.80;100.00;102562.19;5248418;28;20017;-71
2021/12/13 12:21:54;;;;;;;6.77;5.57;;;;;;;8.80;100.00;102562.19;5248398;28;20116;-72
2021/12/13 12:24:39;;;;;;;6.53;4.80;;;;;;;8.80;100.00;102562.19;5237135;28;20574;-73
2021/12/13 12:27:21;;;;;;;7.80;3.75;;;;;;;-150.27;100.00;78578.53;5248415;28;20087;-70
2021/12/13 12:29:55;;;;;;;8.63;4.77;;;;;;;8.80;100.00;102562.19;5247868;28;20441;-71
2021/12/13 12:32:26;;;;;;;;;;;;;;;9.49;97.33;102584.84;5248806;28;20041;-72
2021/12/13 12:35:03;;;;;;;10.30;5.38;;;;;;;9.31;95.47;102583.56;5246188;28;19948;-74
2021/12/13 12:37:36;;;;;;;10.93;4.90;;;;;;;9.37;96.36;102585.19;5246769;28;20472;-71
2021/12/13 12:40:07;;;;;;;6.70;4.80;;;;;;;9.37;100.00;102587.78;5236104;28;20021;-71
2021/12/13 12:42:43;;;;;;;12.67;4.93;;;;;;;-150.27;100.00;61272.81;5251333;28;20082;-72
2021/12/13 12:45:30;;;;;;;8.07;4.90;;;;;;;-150.27;100.00;61272.81;5250419;28;20531;-71
2021/12/13 12:48:25;;;;;;;6.87;4.73;;;;;;;-150.27;100.00;61272.81;5250761;28;20108;-71
2021/12/13 12:51:11;;;;;;;7.70;4.93;;;;;;;-150.27;100.00;61272.81;5252300;28;20489;-70
2021/12/13 12:54:04;;;;;;;8.37;5.23;;;;;;;-150.27;100.00;61272.81;5251406;28;20056;-74
2021/12/13 12:56:58;;;;;;;7.33;4.97;;;;;;;-150.27;100.00;61272.81;5249386;28;20069;-73
2021/12/13 12:59:33;;;;;;;9.80;5.10;;;;;;;-150.27;100.00;61272.81;5250863;28;20022;-72
2021/12/13 13:02:09;;;;;;;9.13;4.87;;;;;;;-150.27;100.00;61272.81;5251788;28;20028;-72
2021/12/13 13:04:50;;;;;;;7.27;4.90;;;;;;;-150.27;100.00;61272.81;5281799;28;20029;-72
2021/12/13 13:07:29;;;;;;;8.87;5.80;;;;;;;-150.27;100.00;61272.81;5249990;28;20033;-73
2021/12/13 13:10:25;;;;;;;7.97;5.40;;;;;;;-150.27;100.00;61272.81;5251938;28;20369;-72
2021/12/13 13:13:06;;;;;;;9.87;5.50;;;;;;;-150.27;100.00;61272.81;5251366;28;20029;-72
2021/12/13 13:15:46;;;;;;;8.87;5.90;;;;;;;-150.27;100.00;61272.81;5247530;28;20649;-73
2021/12/13 13:18:23;;;;;;;8.67;5.60;;;;;;;-150.27;100.00;61272.81;5239315;28;20045;-73
2021/12/13 13:21:03;;;;;;;8.83;5.10;;;;;;;-150.27;100.00;61272.81;5252273;28;20028;-73
2021/12/13 13:23:45;;;;;;;7.17;4.33;;;;;;;-150.27;100.00;61272.81;5251500;28;20028;-73
2021/12/13 13:26:18;;;;;;;9.30;5.10;;;;;;;-150.27;100.00;61272.81;5245856;28;20489;-73
2021/12/13 13:28:53;;;;;;;8.90;5.83;;;;;;;-150.27;100.00;61272.81;5249849;28;20013;-74
2021/12/13 13:31:53;;;;;;;9.03;5.10;;;;;;;-150.27;100.00;61272.81;5250425;28;20078;-73
2021/12/13 13:34:35;;;;;;;8.97;4.43;;;;;;;-150.27;100.00;61272.81;5248596;28;20107;-74
2021/12/13 13:37:13;;;;;;;8.97;4.43;;;;;;;-150.27;100.00;61272.81;5252112;28;20021;-73
2021/12/13 13:39:51;;;;;;;8.03;4.37;;;;;;;-150.27;100.00;61272.81;5235018;28;20490;-73
2021/12/13 13:42:28;;;;;;;6.67;4.77;;;;;;;-150.27;100.00;61272.81;5250108;28;20146;-73
2021/12/13 13:45:06;;;;;;;6.93;4.57;;;;;;;-150.27;100.00;61272.81;5248526;28;20013;-73
2021/12/13 13:47:42;;;;;;;8.37;5.57;;;;;;;-150.27;100.00;61272.81;5250775;28;20079;-73
2021/12/13 13:50:32;;;;;;;6.47;4.80;;;;;;;-150.27;100.00;61272.81;5233752;28;20021;-73
2021/12/13 13:53:17;;;;;;;13.37;5.17;;;;;;;-150.27;100.00;61272.81;5241514;28;20045;-73
2021/12/13 13:56:00;;;;;;;8.27;5.57;;;;;;;-150.27;100.00;61272.81;5247651;28;20057;-73
2021/12/13 13:58:40;;;;;;;6.47;4.50;;;;;;;-150.27;100.00;61272.81;5249286;28;20097;-73
2021/12/13 14:01:52;;;;;;;7.93;5.53;;;;;;;-150.27;100.00;61272.81;5249908;28;20074;-73
2021/12/13 14:04:30;;;;;;;10.50;4.90;;;;;;;-150.27;100.00;61272.81;5248207;28;20110;-72
2021/12/13 14:07:09;;;;;;;5.77;4.80;;;;;;;-150.27;100.00;61272.81;5249785;28;20833;-75
2021/12/13 14:09:47;;;;;;;7.17;5.13;;;;;;;-150.27;100.00;61272.81;5249533;28;20078;-73
2021/12/13 14:12:40;;;;;;;8.77;5.03;;;;;;;-150.27;100.00;61272.81;5248093;28;20514;-74
2021/12/13 14:15:13;;;;;;;7.17;4.73;;;;;;;-150.27;100.00;61272.81;5247585;28;20021;-73
2021/12/13 14:18:07;;;;;;;9.13;5.00;;;;;;;-150.27;100.00;61272.81;5250779;28;20021;-73
2021/12/13 14:20:49;;;;;;;13.37;5.90;;;;;;;-150.27;100.00;61272.81;5238331;28;20512;-73
2021/12/13 14:23:27;;;;;;;13.63;6.53;;;;;;;-150.27;100.00;61272.81;5250090;28;20036;-72
2021/12/13 14:26:03;;;;;;;11.70;6.37;;;;;;;-150.27;100.00;61272.81;5246166;28;20032;-72
2021/12/13 14:28:36;;;;;;;17.83;7.00;;;;;;;-150.27;100.00;61272.81;5247771;28;20055;-72
2021/12/13 14:31:15;;;;;;;8.80;5.90;;;;;;;-150.27;100.00;61272.81;5250512;28;20025;-72
2021/12/13 14:34:05;;;;;;;10.57;7.00;;;;;;;-150.27;100.00;61272.81;5248766;28;20028;-72
2021/12/13 14:36:44;;;;;;;12.17;6.07;;;;;;;-150.27;100.00;61272.81;5248216;28;20055;-72
2021/12/13 14:39:26;;;;;;;10.90;6.17;;;;;;;-150.27;100.00;61272.81;5249724;28;20079;-72
2021/12/13 14:42:03;;;;;;;10.93;6.63;;;;;;;-150.27;100.00;61272.81;5249956;28;20639;-71
2021/12/13 14:44:46;;;;;;;10.07;6.90;;;;;;;-150.27;100.00;61272.81;5245555;28;20151;-72
2021/12/13 14:47:35;;;;;;;9.93;5.93;;;;;;;-150.27;100.00;61272.81;5250317;28;20033;-72
2021/12/13 14:50:12;;;;;;;9.83;7.27;;;;;;;-150.27;100.00;61272.81;5249469;28;20028;-73
2021/12/13 14:52:47;;;;;;;16.13;7.13;;;;;;;-150.27;100.00;61272.81;5249890;28;20049;-73
2021/12/13 14:55:26;;;;;;;13.57;7.47;;;;;;;-150.27;100.00;61272.81;5245270;28;20025;-73
2021/12/13 14:58:04;;;;;;;11.13;7.13;;;;;;;-150.27;100.00;61272.81;5248912;28;20028;-72
2021/12/13 15:00:44;;;;;;;10.30;7.20;;;;;;;-150.27;100.00;61272.81;5247858;28;20498;-71
2021/12/13 15:03:20;;;;;;;13.27;7.90;;;;;;;-150.27;100.00;61272.81;5241198;28;20040;-72
2021/12/13 15:06:06;;;;;;;9.90;6.83;;;;;;;-150.27;100.00;61272.81;5247181;28;20037;-72
2021/12/13 15:08:42;;;;;;;12.77;6.93;;;;;;;-150.27;100.00;61272.81;5246672;28;20035;-72
2021/12/13 15:11:20;;;;;;;14.70;7.57;;;;;;;-150.27;100.00;61272.81;5249365;28;20747;-71
2021/12/13 15:13:56;;;;;;;14.17;7.83;;;;;;;-150.27;100.00;61272.81;5248403;28;20156;-73
2021/12/13 15:16:34;;;;;;;11.90;7.17;;;;;;;-150.27;100.00;61272.81;5245512;28;20017;-72
2021/12/13 15:19:12;;;;;;;12.30;6.37;;;;;;;-150.27;100.00;61272.81;5249156;28;20021;-72
2021/12/13 15:21:50;;;;;;;15.77;6.47;;;;;;;-150.27;100.00;61272.81;5249112;28;20127;-72
2021/12/13 15:24:23;;;;;;;8.70;4.57;;;;;;;-150.27;100.00;61272.81;5245165;28;20025;-73
2021/12/13 15:27:02;;;;;;;8.30;4.73;;;;;;;-150.27;100.00;61272.81;5248469;28;20510;-72
2021/12/13 15:29:34;;;;;;;10.97;5.13;;;;;;;-150.27;100.00;61272.81;5248978;28;20021;-71
2021/12/13 15:32:17;;;;;;;9.07;4.33;;;;;;;-150.27;100.00;61272.81;5249457;28;20510;-72
2021/12/13 15:34:54;;;;;;;7.87;5.00;;;;;;;-150.27;100.00;61272.81;5244988;28;20043;-74
2021/12/13 15:37:28;;;;;;;9.93;5.10;;;;;;;-150.27;100.00;61272.81;5249463;28;20503;-71
2021/12/13 15:40:15;;;;;;;11.57;4.22;;;;;;;-150.27;100.00;61272.81;5238502;28;20060;-72
2021/12/13 15:42:50;;;;;;;10.73;5.47;;;;;;;-150.27;100.00;61272.81;5246937;28;20032;-71
2021/12/13 15:45:31;;;;;;;9.63;5.67;;;;;;;-150.27;100.00;61272.81;5246004;28;20502;-77
2021/12/13 15:51:04;;;;;;;9.40;4.57;;;;;;;-150.27;100.00;61272.81;5238736;28;20021;-74
2021/12/13 15:53:36;;;;;;;7.60;4.83;;;;;;;-150.27;100.00;61272.81;5238277;28;20045;-74
2021/12/13 15:56:11;;;;;;;8.13;4.80;;;;;;;-150.27;100.00;61272.81;5236232;28;20446;-75
2021/12/13 15:58:48;;;;;;;8.20;4.40;;;;;;;-150.27;100.00;61272.81;5237395;28;20116;-74
2021/12/13 16:01:28;;;;;;;7.80;4.63;;;;;;;-150.27;100.00;61272.81;5237352;28;20087;-74
2021/12/13 16:04:02;;;;;;;6.83;4.13;;;;;;;-150.27;100.00;61272.81;5238607;28;20061;-74
2021/12/13 16:06:39;;;;;;;8.50;5.00;;;;;;;-150.27;100.00;61272.81;5235680;28;20032;-78
2021/12/13 16:09:12;;;;;;;21.03;12.33;;;;;;;-150.27;100.00;61272.81;5237159;28;20053;-75
2021/12/13 16:11:50;;;;;;;9.33;6.00;;;;;;;-150.27;100.00;61272.81;5238922;28;20635;-76
2021/12/13 16:14:37;;;;;;;8.70;5.20;;;;;;;-150.27;100.00;61272.81;5236451;28;20556;-76
2021/12/13 16:17:14;;;;;;;9.50;4.77;;;;;;;-150.27;100.00;61272.81;5242483;28;20268;-77
2021/12/13 16:19:57;;;;;;;10.00;5.00;;;;;;;-150.27;100.00;61272.81;5240980;28;20047;-74
2021/12/13 16:22:34;;;;;;;10.97;5.83;;;;;;;-150.27;100.00;61272.81;5242036;28;20055;-76
2021/12/13 16:25:14;;;;;;;8.50;5.43;;;;;;;-150.27;100.00;61272.81;5238843;28;20152;-74
2021/12/13 16:27:50;;;;;;;7.43;5.00;;;;;;;-150.27;100.00;61272.81;5240618;28;20040;-76
2021/12/13 16:30:25;;;;;;;6.60;4.37;;;;;;;-150.27;100.00;61272.81;5241210;28;20037;-75
2021/12/13 16:33:00;;;;;;;8.20;4.17;;;;;;;-150.27;100.00;61272.81;5242797;28;20040;-73
2021/12/13 16:35:33;;;;;;;5.07;3.53;;;;;;;-150.27;100.00;61272.81;5235433;28;20041;-78
2021/12/13 16:38:06;;;;;;;6.80;4.00;;;;;;;-150.27;100.00;61272.81;5241282;28;20032;-76
2021/12/13 16:40:42;;;;;;;7.37;3.73;;;;;;;-150.27;100.00;61272.81;5241324;28;20120;-76
2021/12/13 16:43:17;;;;;;;6.90;4.20;;;;;;;-150.27;100.00;61272.81;5242327;28;20094;-77
2021/12/13 16:45:54;;;;;;;5.47;3.70;;;;;;;-150.27;100.00;61272.81;5239320;28;20470;-77
2021/12/13 16:48:30;;;;;;;6.73;3.87;;;;;;;-150.27;100.00;61272.81;5243431;28;20503;-76
2021/12/13 16:51:09;;;;;;;6.20;4.40;;;;;;;-150.27;100.00;61272.81;5243705;28;20033;-78
2021/12/13 16:53:42;;;;;;;6.20;3.77;;;;;;;-150.27;100.00;61272.81;5239764;28;20619;-78
2021/12/13 16:56:18;;;;;;;6.17;3.40;;;;;;;-150.27;100.00;61272.81;5240021;28;20028;-76
2021/12/13 16:58:54;;;;;;;5.90;3.10;;;;;;;-150.27;100.00;61272.81;5240451;28;20033;-75
2021/12/13 17:01:39;;;;;;;5.60;3.80;;;;;;;-150.27;100.00;61272.81;5240982;28;20066;-75
2021/12/13 17:04:15;;;;;;;6.17;3.90;;;;;;;-150.27;100.00;61272.81;5238206;28;20025;-78
2021/12/13 17:06:53;;;;;;;5.63;3.73;;;;;;;-150.27;100.00;61272.81;5240022;28;20040;-76
2021/12/13 17:09:27;;;;;;;8.03;4.20;;;;;;;-150.27;100.00;61272.81;5239692;28;20044;-77
2021/12/13 17:12:12;;;;;;;8.73;5.18;;;;;;;-150.27;100.00;61272.81;5236142;28;20253;-75
2021/12/13 17:14:57;;;;;;;9.73;3.73;;;;;;;-150.27;100.00;61272.81;5237726;28;20120;-74
2021/12/13 17:17:35;;;;;;;8.18;3.55;;;;;;;-150.27;100.00;61272.81;5240891;28;20029;-76
2021/12/13 17:20:19;;;;;;;5.10;3.40;;;;;;;-150.27;100.00;61272.81;5240667;28;20104;-75
2021/12/13 17:22:51;;;;;;;11.33;4.37;;;;;;;-150.27;100.00;61272.81;5244739;28;20522;-74
2021/12/13 17:25:27;;;;;;;5.40;3.83;;;;;;;-150.27;100.00;61272.81;5245617;28;20021;-73
2021/12/13 17:28:02;;;;;;;8.17;4.50;;;;;;;-150.27;100.00;61272.81;5250198;28;20505;-72
2021/12/13 17:30:33;;;;;;;9.83;5.10;;;;;;;-150.27;100.00;61272.81;5281894;28;20013;-73
2021/12/13 17:33:06;;;;;;;6.17;4.43;;;;;;;-150.27;100.00;61272.81;5248246;28;20023;-73
2021/12/13 17:35:42;;;;;;;5.60;4.13;;;;;;;-150.27;100.00;61272.81;5251771;28;20071;-74
2021/12/13 17:38:18;;;;;;;7.37;3.70;;;;;;;-150.27;100.00;61272.81;5255651;28;20028;-74
2021/12/13 17:40:52;;;;;;;7.07;4.40;;;;;;;-150.27;100.00;61272.81;5240842;28;20052;-74
2021/12/13 17:43:37;;;;;;;5.70;3.88;;;;;;;-150.27;100.00;61272.81;5249785;28;20049;-74
2021/12/13 17:46:17;;;;;;;7.97;4.30;;;;;;;-150.27;100.00;61272.81;5249639;28;20033;-74
2021/12/13 17:48:50;;;;;;;4.70;3.73;;;;;;;-150.27;100.00;61272.81;5283977;28;20025;-76
2021/12/13 17:51:26;;;;;;;6.00;4.25;;;;;;;-150.27;100.00;61272.81;5252113;28;20042;-73
2021/12/13 17:54:04;;;;;;;8.83;4.20;;;;;;;-150.27;100.00;61272.81;5253006;28;20056;-73
2021/12/13 17:56:39;;;;;;;6.93;5.10;;;;;;;-150.27;100.00;61272.81;5246962;28;20025;-73
2021/12/13 17:59:15;;;;;;;6.97;4.45;;;;;;;-150.27;100.00;61272.81;5251110;28;20024;-74
2021/12/13 18:01:53;;;;;;;7.23;3.93;;;;;;;-150.27;100.00;61272.81;5251007;28;20442;-74
2021/12/13 18:04:27;;;;;;;6.73;3.97;;;;;;;-150.27;100.00;61272.81;5244361;28;20028;-73
2021/12/13 18:07:05;;;;;;;12.05;4.70;;;;;;;-150.27;100.00;61272.81;5250549;28;20060;-72
2021/12/13 18:09:42;;;;;;;6.00;4.03;;;;;;;-150.27;100.00;61272.81;5245147;28;20025;-72
2021/12/13 18:12:32;;;;;;;8.10;4.83;;;;;;;-150.27;100.00;61272.81;5240836;28;20424;-73
2021/12/13 18:15:17;;;;;;;6.47;4.20;;;;;;;-150.27;100.00;61272.81;5247690;28;20119;-72
2021/12/13 18:17:53;;;;;;;5.43;3.83;;;;;;;-150.27;100.00;61272.81;5250016;28;20029;-73
2021/12/13 18:20:46;;;;;;;6.77;3.77;;;;;;;-150.27;100.00;61272.81;5249240;28;20032;-75
2021/12/13 18:23:24;;;;;;;8.90;4.33;;;;;;;-150.27;100.00;61272.81;5241683;28;20487;-73
2021/12/13 18:26:01;;;;;;;8.07;4.17;;;;;;;-150.27;100.00;61272.81;5246660;28;20419;-74
2021/12/13 18:28:57;;;;;;;6.53;4.40;;;;;;;-150.27;100.00;61272.81;5253817;28;20068;-73
2021/12/13 18:31:40;;;;;;;5.90;3.37;;;;;;;-150.27;100.00;61272.81;5255077;28;20392;-71
2021/12/13 18:34:24;;;;;;;5.17;4.30;;;;;;;-150.27;100.00;61272.81;5245273;28;20028;-71
2021/12/13 18:37:08;;;;;;;8.77;4.47;;;;;;;-150.27;100.00;61272.81;5248723;28;20034;-71
2021/12/13 18:39:43;;;;;;;11.50;4.68;;;;;;;-150.27;100.00;61272.81;5248768;28;20290;-73
2021/12/13 18:42:23;;;;;;;7.90;4.67;;;;;;;-150.27;100.00;61272.81;5247038;28;20029;-70
2021/12/13 18:45:11;;;;;;;7.97;4.30;;;;;;;-150.27;100.00;61272.81;5247318;28;20033;-71
2021/12/13 18:47:55;;;;;;;7.27;4.27;;;;;;;-150.27;100.00;61272.81;5250242;28;20029;-70
2021/12/13 18:50:29;;;;;;;5.47;4.57;;;;;;;-150.27;100.00;61272.81;5249712;28;20025;-70
2021/12/13 18:53:13;;;;;;;6.45;4.72;;;;;;;-150.27;100.00;61272.81;5247298;28;20052;-71
2021/12/13 18:55:44;;;;;;;8.67;5.60;;;;;;;-150.27;100.00;61272.81;5245552;28;20025;-70
2021/12/13 18:58:30;;;;;;;8.80;6.03;;;;;;;-150.27;100.00;61272.81;5248289;28;20452;-70
2021/12/13 19:01:08;;;;;;;7.30;5.20;;;;;;;-150.27;100.00;61272.81;5247082;28;20032;-71
2021/12/13 19:04:08;;;;;;;10.93;5.60;;;;;;;-150.27;100.00;61272.81;5249128;28;20033;-72
2021/12/13 19:06:45;;;;;;;8.23;5.57;;;;;;;-150.27;100.00;61272.81;5243921;28;20087;-72
2021/12/13 19:09:33;;;;;;;6.10;4.60;;;;;;;-150.27;100.00;61272.81;5248627;28;20025;-72
2021/12/13 19:12:09;;;;;;;7.20;4.97;;;;;;;-150.27;100.00;61272.81;5248066;28;20017;-72
2021/12/13 19:14:48;;;;;;;10.23;5.53;;;;;;;-150.27;100.00;61272.81;5246781;28;20120;-71
2021/12/13 19:17:34;;;;;;;7.47;5.00;;;;;;;-150.27;100.00;61272.81;5253082;28;20399;-73
2021/12/13 19:20:20;;;;;;;8.07;5.10;;;;;;;-150.27;100.00;61272.81;5253558;28;20032;-72
2021/12/13 19:22:53;;;;;;;7.97;5.43;;;;;;;-150.27;100.00;61272.81;5256233;28;20037;-72
2021/12/13 19:25:25;;;;;;;8.83;5.30;;;;;;;-150.27;100.00;61272.81;5289153;28;20028;-72
2021/12/13 19:28:00;;;;;;;9.83;6.30;;;;;;;-150.27;100.00;61272.81;5257483;28;20711;-72
2021/12/13 19:30:43;;;;;;;7.03;4.68;;;;;;;-150.27;100.00;61272.81;5248126;28;20219;-72
2021/12/13 19:33:36;;;;;;;9.43;5.00;;;;;;;-150.27;100.00;61272.81;5252916;28;20028;-71
2021/12/13 19:36:18;;;;;;;8.27;5.03;;;;;;;-150.27;100.00;61272.81;5244576;28;20047;-71
2021/12/13 19:39:05;;;;;;;6.93;4.97;;;;;;;-150.27;100.00;61272.81;5246017;28;20434;-72
2021/12/13 19:41:48;;;;;;;6.43;5.37;;;;;;;-150.27;100.00;61272.81;5247747;28;20096;-72
2021/12/13 19:44:24;;;;;;;8.43;5.03;;;;;;;-150.27;100.00;61272.81;5246210;28;20078;-72
2021/12/13 19:47:01;;;;;;;9.37;5.93;;;;;;;-150.27;100.00;61272.81;5248390;28;20036;-71
2021/12/13 19:49:46;;;;;;;8.87;5.30;;;;;;;-150.27;100.00;61272.81;5250149;28;20549;-71
2021/12/13 19:52:22;;;;;;;8.15;4.68;;;;;;;-150.27;100.00;61272.81;5247285;28;20041;-71
2021/12/13 19:55:10;;;;;;;8.63;5.83;;;;;;;-150.27;100.00;61272.81;5243569;28;20116;-73
2021/12/13 19:57:47;;;;;;;9.20;5.63;;;;;;;-150.27;100.00;61272.81;5258302;28;20087;-71
2021/12/13 20:00:29;;;;;;;6.83;4.60;;;;;;;-150.27;100.00;61272.81;5259153;28;20133;-72
2021/12/13 20:03:03;;;;;;;7.67;5.60;;;;;;;-150.27;100.00;61272.81;5250178;28;20119;-71